sensor_id;sensor_type;location;lat;lon;timestamp;P1;durP1;ratioP1;P2;durP2;ratioP2
75071;SDS011;63651;55.728;38.022;2023-01-15T00:02:24;4.00;;;1.90;;
75071;SDS011;63651;55.728;38.022;2023-01-15T00:07:25;4.88;;;2.45;;
75071;SDS011;63651;55.728;38.022;2023-01-15T00:12:26;2.30;;;2.00;;
75071;SDS011;63651;55.728;38.022;2023-01-15T00:17:27;3.92;;;2.45;;
75071;SDS011;63651;55.728;38.022;2023-01-15T00:22:29;3.97;;;2.28;;
75071;SDS011;63651;55.728;38.022;2023-01-15T00:27:30;4.85;;;2.03;;
75071;SDS011;63651;55.728;38.022;2023-01-15T00:32:40;3.08;;;1.92;;
75071;SDS011;63651;55.728;38.022;2023-01-15T00:37:42;3.10;;;2.38;;
75071;SDS011;63651;55.728;38.022;2023-01-15T00:42:43;3.08;;;2.35;;
75071;SDS011;63651;55.728;38.022;2023-01-15T00:47:44;3.20;;;2.70;;
75071;SDS011;63651;55.728;38.022;2023-01-15T00:52:47;3.70;;;2.20;;
75071;SDS011;63651;55.728;38.022;2023-01-15T00:57:48;3.55;;;1.90;;
75071;SDS011;63651;55.728;38.022;2023-01-15T01:02:49;3.85;;;2.40;;
75071;SDS011;63651;55.728;38.022;2023-01-15T01:07:50;3.50;;;2.20;;
75071;SDS011;63651;55.728;38.022;2023-01-15T01:12:52;2.95;;;2.10;;
75071;SDS011;63651;55.728;38.022;2023-01-15T01:17:53;2.70;;;2.10;;
75071;SDS011;63651;55.728;38.022;2023-01-15T01:22:54;3.88;;;2.22;;
75071;SDS011;63651;55.728;38.022;2023-01-15T01:27:55;3.33;;;2.28;;
75071;SDS011;63651;55.728;38.022;2023-01-15T01:32:56;3.38;;;2.25;;
75071;SDS011;63651;55.728;38.022;2023-01-15T01:37:57;3.50;;;2.25;;
75071;SDS011;63651;55.728;38.022;2023-01-15T01:42:58;3.00;;;1.73;;
75071;SDS011;63651;55.728;38.022;2023-01-15T01:48:00;3.08;;;2.03;;
75071;SDS011;63651;55.728;38.022;2023-01-15T01:53:07;3.75;;;2.55;;
75071;SDS011;63651;55.728;38.022;2023-01-15T01:58:13;3.00;;;1.80;;
75071;SDS011;63651;55.728;38.022;2023-01-15T02:03:16;2.80;;;2.13;;
75071;SDS011;63651;55.728;38.022;2023-01-15T02:08:20;4.00;;;2.00;;
75071;SDS011;63651;55.728;38.022;2023-01-15T02:18:39;2.78;;;1.58;;
75071;SDS011;63651;55.728;38.022;2023-01-15T02:24:43;3.80;;;2.20;;
75071;SDS011;63651;55.728;38.022;2023-01-15T02:29:46;4.32;;;2.80;;
75071;SDS011;63651;55.728;38.022;2023-01-15T02:34:49;3.35;;;2.15;;
75071;SDS011;63651;55.728;38.022;2023-01-15T02:39:55;3.95;;;2.30;;
75071;SDS011;63651;55.728;38.022;2023-01-15T02:44:59;3.78;;;2.55;;
75071;SDS011;63651;55.728;38.022;2023-01-15T02:50:04;4.97;;;2.58;;
75071;SDS011;63651;55.728;38.022;2023-01-15T02:55:10;3.88;;;1.88;;
75071;SDS011;63651;55.728;38.022;2023-01-15T03:00:18;5.00;;;2.33;;
75071;SDS011;63651;55.728;38.022;2023-01-15T03:05:32;5.85;;;2.38;;
75071;SDS011;63651;55.728;38.022;2023-01-15T03:21:21;3.03;;;2.50;;
75071;SDS011;63651;55.728;38.022;2023-01-15T03:26:30;4.32;;;2.50;;
75071;SDS011;63651;55.728;38.022;2023-01-15T03:31:32;3.42;;;2.30;;
75071;SDS011;63651;55.728;38.022;2023-01-15T03:36:35;4.72;;;2.45;;
75071;SDS011;63651;55.728;38.022;2023-01-15T03:52:24;4.68;;;2.95;;
75071;SDS011;63651;55.728;38.022;2023-01-15T03:57:33;5.65;;;3.10;;
75071;SDS011;63651;55.728;38.022;2023-01-15T04:02:39;5.38;;;3.05;;
75071;SDS011;63651;55.728;38.022;2023-01-15T04:07:41;4.13;;;2.70;;
75071;SDS011;63651;55.728;38.022;2023-01-15T04:12:42;5.40;;;2.47;;
75071;SDS011;63651;55.728;38.022;2023-01-15T04:17:43;5.72;;;2.88;;
75071;SDS011;63651;55.728;38.022;2023-01-15T04:22:44;4.28;;;2.70;;
75071;SDS011;63651;55.728;38.022;2023-01-15T04:27:45;4.80;;;2.85;;
75071;SDS011;63651;55.728;38.022;2023-01-15T04:32:47;6.28;;;3.00;;
75071;SDS011;63651;55.728;38.022;2023-01-15T04:37:52;5.97;;;2.60;;
75071;SDS011;63651;55.728;38.022;2023-01-15T04:42:54;4.05;;;2.65;;
75071;SDS011;63651;55.728;38.022;2023-01-15T04:48:14;4.85;;;2.60;;
75071;SDS011;63651;55.728;38.022;2023-01-15T04:53:15;7.65;;;2.30;;
75071;SDS011;63651;55.728;38.022;2023-01-15T04:58:16;6.80;;;3.47;;
75071;SDS011;63651;55.728;38.022;2023-01-15T05:03:17;4.13;;;2.28;;
75071;SDS011;63651;55.728;38.022;2023-01-15T05:08:19;5.63;;;2.72;;
75071;SDS011;63651;55.728;38.022;2023-01-15T05:13:20;7.40;;;2.85;;
75071;SDS011;63651;55.728;38.022;2023-01-15T05:18:21;6.13;;;3.55;;
75071;SDS011;63651;55.728;38.022;2023-01-15T05:23:22;4.32;;;2.80;;
75071;SDS011;63651;55.728;38.022;2023-01-15T05:28:23;7.63;;;3.40;;
75071;SDS011;63651;55.728;38.022;2023-01-15T05:33:24;7.70;;;3.65;;
75071;SDS011;63651;55.728;38.022;2023-01-15T05:38:25;6.32;;;3.83;;
75071;SDS011;63651;55.728;38.022;2023-01-15T05:43:26;5.20;;;3.38;;
75071;SDS011;63651;55.728;38.022;2023-01-15T05:48:27;6.13;;;4.10;;
75071;SDS011;63651;55.728;38.022;2023-01-15T05:53:28;6.65;;;3.67;;
75071;SDS011;63651;55.728;38.022;2023-01-15T05:58:29;6.35;;;3.63;;
75071;SDS011;63651;55.728;38.022;2023-01-15T06:03:30;5.53;;;3.13;;
75071;SDS011;63651;55.728;38.022;2023-01-15T06:08:32;6.07;;;4.07;;
75071;SDS011;63651;55.728;38.022;2023-01-15T06:13:33;6.63;;;3.30;;
75071;SDS011;63651;55.728;38.022;2023-01-15T06:18:34;5.32;;;3.50;;
75071;SDS011;63651;55.728;38.022;2023-01-15T06:23:35;7.20;;;3.22;;
75071;SDS011;63651;55.728;38.022;2023-01-15T06:28:37;6.35;;;3.53;;
75071;SDS011;63651;55.728;38.022;2023-01-15T06:33:38;7.35;;;3.65;;
75071;SDS011;63651;55.728;38.022;2023-01-15T06:38:39;4.40;;;3.20;;
75071;SDS011;63651;55.728;38.022;2023-01-15T06:43:41;7.30;;;3.42;;
75071;SDS011;63651;55.728;38.022;2023-01-15T06:49:14;6.60;;;3.42;;
75071;SDS011;63651;55.728;38.022;2023-01-15T06:54:15;6.72;;;3.70;;
75071;SDS011;63651;55.728;38.022;2023-01-15T06:59:16;6.00;;;3.50;;
75071;SDS011;63651;55.728;38.022;2023-01-15T07:04:18;7.13;;;3.55;;
75071;SDS011;63651;55.728;38.022;2023-01-15T07:09:19;5.03;;;3.28;;
75071;SDS011;63651;55.728;38.022;2023-01-15T07:14:23;9.82;;;3.78;;
75071;SDS011;63651;55.728;38.022;2023-01-15T07:19:27;8.40;;;4.22;;
75071;SDS011;63651;55.728;38.022;2023-01-15T07:24:29;7.65;;;3.75;;
75071;SDS011;63651;55.728;38.022;2023-01-15T07:29:30;6.63;;;3.72;;
75071;SDS011;63651;55.728;38.022;2023-01-15T07:34:31;5.60;;;3.70;;
75071;SDS011;63651;55.728;38.022;2023-01-15T07:39:33;8.02;;;3.72;;
75071;SDS011;63651;55.728;38.022;2023-01-15T07:44:34;8.27;;;4.57;;
75071;SDS011;63651;55.728;38.022;2023-01-15T07:49:54;5.88;;;3.90;;
75071;SDS011;63651;55.728;38.022;2023-01-15T07:54:55;7.75;;;4.18;;
75071;SDS011;63651;55.728;38.022;2023-01-15T07:59:56;5.07;;;3.70;;
75071;SDS011;63651;55.728;38.022;2023-01-15T08:04:58;5.45;;;3.58;;
75071;SDS011;63651;55.728;38.022;2023-01-15T08:09:59;6.70;;;4.05;;
75071;SDS011;63651;55.728;38.022;2023-01-15T08:15:00;8.32;;;4.20;;
75071;SDS011;63651;55.728;38.022;2023-01-15T08:20:20;4.82;;;3.33;;
75071;SDS011;63651;55.728;38.022;2023-01-15T08:25:24;5.75;;;4.03;;
75071;SDS011;63651;55.728;38.022;2023-01-15T08:30:25;5.72;;;3.60;;
75071;SDS011;63651;55.728;38.022;2023-01-15T08:35:26;5.30;;;3.95;;
75071;SDS011;63651;55.728;38.022;2023-01-15T08:40:27;7.25;;;3.50;;
75071;SDS011;63651;55.728;38.022;2023-01-15T08:45:28;5.70;;;3.53;;
75071;SDS011;63651;55.728;38.022;2023-01-15T08:50:29;6.20;;;3.05;;
75071;SDS011;63651;55.728;38.022;2023-01-15T08:55:30;7.30;;;4.55;;
75071;SDS011;63651;55.728;38.022;2023-01-15T09:00:32;8.23;;;4.53;;
75071;SDS011;63651;55.728;38.022;2023-01-15T09:05:35;12.13;;;6.43;;
75071;SDS011;63651;55.728;38.022;2023-01-15T09:10:37;8.27;;;6.40;;
75071;SDS011;63651;55.728;38.022;2023-01-15T09:15:40;10.48;;;7.07;;
75071;SDS011;63651;55.728;38.022;2023-01-15T09:20:41;12.40;;;6.78;;
75071;SDS011;63651;55.728;38.022;2023-01-15T09:25:52;9.43;;;5.93;;
75071;SDS011;63651;55.728;38.022;2023-01-15T09:30:56;9.00;;;6.07;;
75071;SDS011;63651;55.728;38.022;2023-01-15T09:35:57;9.82;;;7.20;;
75071;SDS011;63651;55.728;38.022;2023-01-15T09:40:59;10.07;;;6.38;;
75071;SDS011;63651;55.728;38.022;2023-01-15T09:52:02;9.60;;;5.35;;
75071;SDS011;63651;55.728;38.022;2023-01-15T09:57:11;8.05;;;5.88;;
75071;SDS011;63651;55.728;38.022;2023-01-15T10:02:26;8.38;;;5.75;;
75071;SDS011;63651;55.728;38.022;2023-01-15T10:07:36;8.10;;;4.88;;
75071;SDS011;63651;55.728;38.022;2023-01-15T10:12:50;9.73;;;5.97;;
75071;SDS011;63651;55.728;38.022;2023-01-15T10:17:57;7.68;;;5.90;;
75071;SDS011;63651;55.728;38.022;2023-01-15T10:28:42;5.50;;;4.53;;
75071;SDS011;63651;55.728;38.022;2023-01-15T10:39:15;6.75;;;5.13;;
75071;SDS011;63651;55.728;38.022;2023-01-15T10:50:23;6.72;;;4.22;;
75071;SDS011;63651;55.728;38.022;2023-01-15T10:55:30;7.63;;;4.25;;
75071;SDS011;63651;55.728;38.022;2023-01-15T11:00:36;5.85;;;4.15;;
75071;SDS011;63651;55.728;38.022;2023-01-15T11:05:38;6.85;;;4.80;;
75071;SDS011;63651;55.728;38.022;2023-01-15T11:10:39;7.07;;;4.47;;
75071;SDS011;63651;55.728;38.022;2023-01-15T11:15:44;6.65;;;4.75;;
75071;SDS011;63651;55.728;38.022;2023-01-15T11:21:10;6.00;;;5.40;;
75071;SDS011;63651;55.728;38.022;2023-01-15T11:26:47;5.40;;;4.30;;
75071;SDS011;63651;55.728;38.022;2023-01-15T11:31:40;5.70;;;4.07;;
75071;SDS011;63651;55.728;38.022;2023-01-15T11:36:41;4.50;;;3.83;;
75071;SDS011;63651;55.728;38.022;2023-01-15T11:41:42;4.53;;;3.70;;
75071;SDS011;63651;55.728;38.022;2023-01-15T11:47:02;4.38;;;3.63;;
75071;SDS011;63651;55.728;38.022;2023-01-15T11:52:28;4.38;;;3.40;;
75071;SDS011;63651;55.728;38.022;2023-01-15T11:57:30;4.57;;;3.75;;
75071;SDS011;63651;55.728;38.022;2023-01-15T12:02:34;5.72;;;3.35;;
75071;SDS011;63651;55.728;38.022;2023-01-15T12:07:45;5.45;;;3.30;;
75071;SDS011;63651;55.728;38.022;2023-01-15T12:29:44;3.85;;;3.28;;
75071;SDS011;63651;55.728;38.022;2023-01-15T12:35:03;3.80;;;3.15;;
75071;SDS011;63651;55.728;38.022;2023-01-15T12:40:24;4.07;;;2.40;;
75071;SDS011;63651;55.728;38.022;2023-01-15T12:45:30;5.72;;;3.13;;
75071;SDS011;63651;55.728;38.022;2023-01-15T12:50:45;5.10;;;3.08;;
75071;SDS011;63651;55.728;38.022;2023-01-15T12:55:53;4.13;;;2.20;;
75071;SDS011;63651;55.728;38.022;2023-01-15T13:01:21;4.63;;;2.72;;
75071;SDS011;63651;55.728;38.022;2023-01-15T13:06:28;10.27;;;2.47;;
75071;SDS011;63651;55.728;38.022;2023-01-15T13:11:30;5.18;;;2.72;;
75071;SDS011;63651;55.728;38.022;2023-01-15T13:21:41;5.63;;;2.38;;
75071;SDS011;63651;55.728;38.022;2023-01-15T13:32:12;5.95;;;2.17;;
75071;SDS011;63651;55.728;38.022;2023-01-15T13:37:19;5.72;;;2.58;;
75071;SDS011;63651;55.728;38.022;2023-01-15T13:42:25;4.50;;;2.40;;
75071;SDS011;63651;55.728;38.022;2023-01-15T13:47:36;3.70;;;2.03;;
75071;SDS011;63651;55.728;38.022;2023-01-15T13:52:39;3.88;;;2.20;;
75071;SDS011;63651;55.728;38.022;2023-01-15T13:57:40;5.53;;;2.50;;
75071;SDS011;63651;55.728;38.022;2023-01-15T14:02:49;3.40;;;2.17;;
75071;SDS011;63651;55.728;38.022;2023-01-15T14:07:54;4.03;;;2.20;;
75071;SDS011;63651;55.728;38.022;2023-01-15T14:34:52;3.95;;;2.15;;
75071;SDS011;63651;55.728;38.022;2023-01-15T14:39:56;3.38;;;1.75;;
75071;SDS011;63651;55.728;38.022;2023-01-15T14:55:27;3.65;;;1.77;;
75071;SDS011;63651;55.728;38.022;2023-01-15T15:00:36;4.40;;;2.53;;
75071;SDS011;63651;55.728;38.022;2023-01-15T15:05:40;5.25;;;2.83;;
75071;SDS011;63651;55.728;38.022;2023-01-15T15:10:44;5.53;;;2.85;;
75071;SDS011;63651;55.728;38.022;2023-01-15T15:16:34;4.10;;;2.50;;
75071;SDS011;63651;55.728;38.022;2023-01-15T15:31:23;3.95;;;2.30;;
75071;SDS011;63651;55.728;38.022;2023-01-15T15:36:28;4.07;;;2.20;;
75071;SDS011;63651;55.728;38.022;2023-01-15T15:41:34;3.67;;;1.80;;
75071;SDS011;63651;55.728;38.022;2023-01-15T15:46:54;3.65;;;2.15;;
75071;SDS011;63651;55.728;38.022;2023-01-15T15:52:18;3.35;;;2.17;;
75071;SDS011;63651;55.728;38.022;2023-01-15T15:57:23;3.25;;;2.00;;
75071;SDS011;63651;55.728;38.022;2023-01-15T16:02:32;3.33;;;1.95;;
75071;SDS011;63651;55.728;38.022;2023-01-15T16:07:37;4.32;;;2.22;;
75071;SDS011;63651;55.728;38.022;2023-01-15T16:12:43;4.88;;;2.38;;
75071;SDS011;63651;55.728;38.022;2023-01-15T16:17:49;4.07;;;2.45;;
75071;SDS011;63651;55.728;38.022;2023-01-15T16:22:54;4.07;;;2.35;;
75071;SDS011;63651;55.728;38.022;2023-01-15T16:28:00;3.25;;;1.92;;
75071;SDS011;63651;55.728;38.022;2023-01-15T16:33:02;2.85;;;1.95;;
75071;SDS011;63651;55.728;38.022;2023-01-15T16:38:13;2.88;;;2.17;;
75071;SDS011;63651;55.728;38.022;2023-01-15T16:43:20;3.15;;;1.85;;
75071;SDS011;63651;55.728;38.022;2023-01-15T16:48:25;3.53;;;2.25;;
75071;SDS011;63651;55.728;38.022;2023-01-15T16:53:38;3.10;;;2.53;;
75071;SDS011;63651;55.728;38.022;2023-01-15T16:58:40;3.50;;;3.00;;
75071;SDS011;63651;55.728;38.022;2023-01-15T17:03:41;8.02;;;4.97;;
75071;SDS011;63651;55.728;38.022;2023-01-15T17:08:43;10.27;;;4.93;;
75071;SDS011;63651;55.728;38.022;2023-01-15T17:13:47;7.45;;;5.43;;
75071;SDS011;63651;55.728;38.022;2023-01-15T17:18:49;7.60;;;5.05;;
75071;SDS011;63651;55.728;38.022;2023-01-15T17:23:50;7.18;;;4.28;;
75071;SDS011;63651;55.728;38.022;2023-01-15T17:28:52;7.43;;;4.72;;
75071;SDS011;63651;55.728;38.022;2023-01-15T17:33:53;6.25;;;4.60;;
75071;SDS011;63651;55.728;38.022;2023-01-15T17:38:55;5.85;;;4.38;;
75071;SDS011;63651;55.728;38.022;2023-01-15T17:43:56;7.35;;;4.60;;
75071;SDS011;63651;55.728;38.022;2023-01-15T17:48:57;8.82;;;4.95;;
75071;SDS011;63651;55.728;38.022;2023-01-15T17:53:58;5.93;;;4.45;;
75071;SDS011;63651;55.728;38.022;2023-01-15T17:58:59;5.43;;;3.75;;
75071;SDS011;63651;55.728;38.022;2023-01-15T18:04:40;5.80;;;4.32;;
75071;SDS011;63651;55.728;38.022;2023-01-15T18:10:05;6.25;;;4.25;;
75071;SDS011;63651;55.728;38.022;2023-01-15T18:15:08;7.40;;;4.55;;
75071;SDS011;63651;55.728;38.022;2023-01-15T18:20:09;5.53;;;3.40;;
75071;SDS011;63651;55.728;38.022;2023-01-15T18:25:11;5.57;;;3.78;;
75071;SDS011;63651;55.728;38.022;2023-01-15T18:30:13;5.35;;;3.95;;
75071;SDS011;63651;55.728;38.022;2023-01-15T18:35:15;5.22;;;3.70;;
75071;SDS011;63651;55.728;38.022;2023-01-15T18:40:17;5.60;;;3.53;;
75071;SDS011;63651;55.728;38.022;2023-01-15T18:45:19;5.32;;;3.63;;
75071;SDS011;63651;55.728;38.022;2023-01-15T18:50:39;6.25;;;3.65;;
75071;SDS011;63651;55.728;38.022;2023-01-15T18:55:40;5.13;;;3.95;;
75071;SDS011;63651;55.728;38.022;2023-01-15T19:00:43;5.18;;;3.17;;
75071;SDS011;63651;55.728;38.022;2023-01-15T19:05:44;5.30;;;3.78;;
75071;SDS011;63651;55.728;38.022;2023-01-15T19:10:45;5.72;;;3.40;;
75071;SDS011;63651;55.728;38.022;2023-01-15T19:15:46;7.18;;;5.13;;
75071;SDS011;63651;55.728;38.022;2023-01-15T19:21:20;8.77;;;6.07;;
75071;SDS011;63651;55.728;38.022;2023-01-15T19:26:21;8.88;;;6.10;;
75071;SDS011;63651;55.728;38.022;2023-01-15T19:31:22;9.73;;;6.32;;
75071;SDS011;63651;55.728;38.022;2023-01-15T19:36:36;10.02;;;6.80;;
75071;SDS011;63651;55.728;38.022;2023-01-15T19:41:37;9.43;;;7.03;;
75071;SDS011;63651;55.728;38.022;2023-01-15T19:46:56;8.55;;;5.82;;
75071;SDS011;63651;55.728;38.022;2023-01-15T19:52:16;10.30;;;6.57;;
75071;SDS011;63651;55.728;38.022;2023-01-15T19:57:36;10.38;;;6.53;;
75071;SDS011;63651;55.728;38.022;2023-01-15T20:02:37;9.82;;;6.20;;
75071;SDS011;63651;55.728;38.022;2023-01-15T20:07:39;11.60;;;6.82;;
75071;SDS011;63651;55.728;38.022;2023-01-15T20:12:43;11.35;;;6.65;;
75071;SDS011;63651;55.728;38.022;2023-01-15T20:18:03;9.05;;;5.97;;
75071;SDS011;63651;55.728;38.022;2023-01-15T20:23:04;8.68;;;6.22;;
75071;SDS011;63651;55.728;38.022;2023-01-15T20:28:06;8.88;;;6.25;;
75071;SDS011;63651;55.728;38.022;2023-01-15T20:33:07;8.50;;;5.93;;
75071;SDS011;63651;55.728;38.022;2023-01-15T20:38:09;8.48;;;5.88;;
75071;SDS011;63651;55.728;38.022;2023-01-15T20:43:10;11.15;;;6.70;;
75071;SDS011;63651;55.728;38.022;2023-01-15T20:48:29;13.60;;;6.88;;
75071;SDS011;63651;55.728;38.022;2023-01-15T20:53:49;8.73;;;6.45;;
75071;SDS011;63651;55.728;38.022;2023-01-15T20:58:52;11.38;;;6.78;;
75071;SDS011;63651;55.728;38.022;2023-01-15T21:03:56;8.38;;;5.68;;
75071;SDS011;63651;55.728;38.022;2023-01-15T21:08:57;9.52;;;5.80;;
75071;SDS011;63651;55.728;38.022;2023-01-15T21:13:58;9.40;;;7.05;;
75071;SDS011;63651;55.728;38.022;2023-01-15T21:18:59;10.73;;;6.05;;
75071;SDS011;63651;55.728;38.022;2023-01-15T21:24:03;9.45;;;5.57;;
75071;SDS011;63651;55.728;38.022;2023-01-15T21:29:05;11.50;;;6.63;;
75071;SDS011;63651;55.728;38.022;2023-01-15T21:34:06;12.07;;;7.40;;
75071;SDS011;63651;55.728;38.022;2023-01-15T21:39:09;15.25;;;8.02;;
75071;SDS011;63651;55.728;38.022;2023-01-15T21:44:12;12.55;;;7.57;;
75071;SDS011;63651;55.728;38.022;2023-01-15T21:49:33;12.82;;;7.88;;
75071;SDS011;63651;55.728;38.022;2023-01-15T21:54:34;14.07;;;8.00;;
75071;SDS011;63651;55.728;38.022;2023-01-15T21:59:35;11.15;;;7.57;;
75071;SDS011;63651;55.728;38.022;2023-01-15T22:04:37;11.68;;;7.82;;
75071;SDS011;63651;55.728;38.022;2023-01-15T22:09:38;12.73;;;7.43;;
75071;SDS011;63651;55.728;38.022;2023-01-15T22:14:39;12.10;;;7.95;;
75071;SDS011;63651;55.728;38.022;2023-01-15T22:19:40;14.82;;;8.35;;
75071;SDS011;63651;55.728;38.022;2023-01-15T22:24:41;11.45;;;7.80;;
75071;SDS011;63651;55.728;38.022;2023-01-15T22:29:43;12.38;;;9.02;;
75071;SDS011;63651;55.728;38.022;2023-01-15T22:34:46;12.98;;;7.55;;
75071;SDS011;63651;55.728;38.022;2023-01-15T22:39:47;12.50;;;7.65;;
75071;SDS011;63651;55.728;38.022;2023-01-15T22:44:49;11.93;;;8.00;;
75071;SDS011;63651;55.728;38.022;2023-01-15T22:49:51;9.73;;;6.10;;
75071;SDS011;63651;55.728;38.022;2023-01-15T22:54:52;8.88;;;6.28;;
75071;SDS011;63651;55.728;38.022;2023-01-15T22:59:54;11.63;;;6.82;;
75071;SDS011;63651;55.728;38.022;2023-01-15T23:04:55;11.60;;;6.30;;
75071;SDS011;63651;55.728;38.022;2023-01-15T23:09:56;9.35;;;6.72;;
75071;SDS011;63651;55.728;38.022;2023-01-15T23:14:57;11.40;;;5.90;;
75071;SDS011;63651;55.728;38.022;2023-01-15T23:19:58;11.80;;;6.82;;
75071;SDS011;63651;55.728;38.022;2023-01-15T23:24:59;12.07;;;6.40;;
75071;SDS011;63651;55.728;38.022;2023-01-15T23:30:00;11.35;;;5.60;;
75071;SDS011;63651;55.728;38.022;2023-01-15T23:35:01;8.75;;;5.85;;
75071;SDS011;63651;55.728;38.022;2023-01-15T23:40:02;11.23;;;5.78;;
75071;SDS011;63651;55.728;38.022;2023-01-15T23:45:04;10.35;;;4.97;;
75071;SDS011;63651;55.728;38.022;2023-01-15T23:50:24;9.45;;;5.13;;
75071;SDS011;63651;55.728;38.022;2023-01-15T23:55:25;9.40;;;4.97;;
